createdAt,value
2022-09-15T00:01:41.696Z,98648.22
2022-09-15T00:03:43.993Z,98649.06
2022-09-15T00:05:46.688Z,98638.66
2022-09-15T00:07:49.265Z,98642.78
2022-09-15T00:09:51.413Z,98635.97
2022-09-15T00:11:53.433Z,98643.72
2022-09-15T00:13:57.264Z,98628.13
2022-09-15T00:15:59.362Z,98626.09
2022-09-15T00:18:01.478Z,98633.13
2022-09-15T00:20:06.308Z,98623.03
2022-09-15T00:22:08.467Z,98621.00
2022-09-15T00:24:10.775Z,98619.63
2022-09-15T00:26:18.101Z,98611.41
2022-09-15T00:28:22.041Z,98604.06
2022-09-15T00:30:27.027Z,98616.59
2022-09-15T00:32:30.419Z,98615.88
2022-09-15T00:34:32.570Z,98619.47
2022-09-15T00:36:35.038Z,98620.34
2022-09-15T00:38:43.558Z,98617.44
2022-09-15T00:40:49.101Z,98613.53
2022-09-15T00:42:51.258Z,98608.03
2022-09-15T00:45:00.131Z,98604.44
2022-09-15T00:47:18.783Z,98600.53
2022-09-15T00:49:31.074Z,98588.53
2022-09-15T00:51:52.048Z,98585.63
2022-09-15T00:53:54.630Z,98581.69
2022-09-15T00:55:58.314Z,98581.53
2022-09-15T00:58:12.094Z,98564.38
2022-09-15T01:00:18.464Z,98566.25
2022-09-15T01:02:28.366Z,98567.28
2022-09-15T01:04:30.704Z,98561.63
2022-09-15T01:06:39.419Z,98560.78
2022-09-15T01:08:47.606Z,98552.56
2022-09-15T01:10:52.363Z,98552.22
2022-09-15T01:12:58.498Z,98547.06
2022-09-15T01:15:02.043Z,98550.50
2022-09-15T01:17:34.735Z,98551.56
2022-09-15T01:19:46.500Z,98537.31
2022-09-15T01:21:58.783Z,98528.94
2022-09-15T01:24:32.233Z,98540.63
2022-09-15T01:27:30.492Z,98539.25
2022-09-15T01:29:37.391Z,98533.75
2022-09-15T01:32:16.664Z,98531.00
2022-09-15T01:34:20.817Z,98534.31
2022-09-15T01:36:36.034Z,98538.75
2022-09-15T01:38:50.426Z,98538.59
2022-09-15T01:41:02.985Z,98539.44
2022-09-15T01:43:08.096Z,98523.69
2022-09-15T01:45:29.443Z,98521.81
2022-09-15T01:47:34.407Z,98517.19
2022-09-15T01:49:55.766Z,98519.22
2022-09-15T01:51:57.966Z,98511.69
2022-09-15T01:54:03.784Z,98499.88
2022-09-15T01:56:13.254Z,98501.75
2022-09-15T01:58:15.590Z,98500.25
2022-09-15T02:00:17.935Z,98493.59
2022-09-15T02:02:26.429Z,98510.03
2022-09-15T02:04:34.006Z,98499.75
2022-09-15T02:06:48.440Z,98511.25
2022-09-15T02:09:00.670Z,98513.84
2022-09-15T02:11:18.655Z,98509.00
2022-09-15T02:13:31.116Z,98504.22
2022-09-15T02:15:42.418Z,98504.91
2022-09-15T02:17:54.448Z,98505.63
2022-09-15T02:20:05.683Z,98503.56
2022-09-15T02:22:29.357Z,98512.47
2022-09-15T02:24:42.546Z,98512.31
2022-09-15T02:26:47.737Z,98522.78
2022-09-15T02:28:51.281Z,98508.88
2022-09-15T02:30:57.674Z,98508.03
2022-09-15T02:33:04.315Z,98500.63
2022-09-15T02:35:09.734Z,98498.78
2022-09-15T02:37:12.809Z,98503.56
2022-09-15T02:39:19.631Z,98498.09
2022-09-15T02:41:21.843Z,98491.22
2022-09-15T02:43:24.291Z,98490.19
2022-09-15T02:45:28.190Z,98492.25
2022-09-15T02:48:04.926Z,98486.06
2022-09-15T02:50:08.034Z,98479.22
2022-09-15T02:52:10.084Z,98472.00
2022-09-15T02:54:12.486Z,98478.19
2022-09-15T02:56:16.778Z,98478.19
2022-09-15T02:58:19.172Z,98468.25
2022-09-15T03:00:21.313Z,98472.34
2022-09-15T03:02:23.679Z,98459.84
2022-09-15T03:04:25.640Z,98460.03
2022-09-15T03:06:30.955Z,98457.78
2022-09-15T03:08:32.904Z,98466.88
2022-09-15T03:10:34.855Z,98467.91
2022-09-15T03:12:50.574Z,98469.09
2022-09-15T03:14:57.841Z,98469.97
2022-09-15T03:17:00.802Z,98480.09
2022-09-15T03:19:03.744Z,98491.06
2022-09-15T03:21:10.057Z,98487.63
2022-09-15T03:23:12.332Z,98465.81
2022-09-15T03:25:14.583Z,98468.56
2022-09-15T03:27:16.768Z,98477.69
2022-09-15T03:29:19.272Z,98474.75
2022-09-15T03:31:21.564Z,98471.84
2022-09-15T03:33:26.114Z,98467.38
2022-09-15T03:35:30.929Z,98459.00
2022-09-15T03:37:34.036Z,98457.09
2022-09-15T03:39:36.258Z,98460.69
2022-09-15T03:41:39.642Z,98451.59
2022-09-15T03:43:44.858Z,98452.31
2022-09-15T03:45:47.631Z,98461.56
2022-09-15T03:47:49.798Z,98452.47
2022-09-15T03:49:51.831Z,98466.53
2022-09-15T03:51:53.886Z,98471.31
2022-09-15T03:53:56.093Z,98473.06
2022-09-15T03:56:27.258Z,98487.09
2022-09-15T03:58:30.875Z,98503.38
2022-09-15T04:00:33.157Z,98504.56
2022-09-15T04:02:35.447Z,98515.53
2022-09-15T04:04:37.462Z,98508.34
2022-09-15T04:06:40.280Z,98511.09
2022-09-15T04:08:43.015Z,98513.84
2022-09-15T04:10:50.565Z,98518.47
2022-09-15T04:12:53.676Z,98515.03
2022-09-15T04:14:56.199Z,98505.97
2022-09-15T04:16:58.251Z,98523.41
2022-09-15T04:19:00.573Z,98510.91
2022-09-15T04:21:07.127Z,98516.56
2022-09-15T04:23:09.995Z,98515.53
2022-09-15T04:25:12.222Z,98524.81
2022-09-15T04:27:15.851Z,98517.25
2022-09-15T04:29:19.433Z,98527.00
2022-09-15T04:31:21.738Z,98528.91
2022-09-15T04:33:24.002Z,98530.09
2022-09-15T04:35:26.440Z,98528.06
2022-09-15T04:37:28.470Z,98539.88
2022-09-15T04:39:30.745Z,98536.97
2022-09-15T04:41:33.848Z,98545.34
2022-09-15T04:43:36.054Z,98556.88
2022-09-15T04:45:37.974Z,98546.91
2022-09-15T04:47:40.512Z,98554.44
2022-09-15T04:49:43.516Z,98548.28
2022-09-15T04:51:45.739Z,98550.00
2022-09-15T04:53:48.451Z,98559.41
2022-09-15T04:55:50.656Z,98547.41
2022-09-15T04:57:52.601Z,98550.16
2022-09-15T04:59:54.519Z,98549.47
2022-09-15T05:01:56.881Z,98553.22
2022-09-15T05:03:59.238Z,98560.94
2022-09-15T05:06:01.278Z,98559.06
2022-09-15T05:08:03.757Z,98553.91
2022-09-15T05:10:06.784Z,98560.41
2022-09-15T05:12:09.151Z,98566.59
2022-09-15T05:14:14.273Z,98560.25
2022-09-15T05:16:20.562Z,98552.88
2022-09-15T05:18:22.583Z,98555.47
2022-09-15T05:20:24.718Z,98558.34
2022-09-15T05:22:28.239Z,98552.47
2022-09-15T05:24:31.016Z,98557.25
2022-09-15T05:26:33.219Z,98551.97
2022-09-15T05:28:37.294Z,98556.91
2022-09-15T05:30:44.204Z,98554.16
2022-09-15T05:32:46.733Z,98554.88
2022-09-15T05:34:52.053Z,98551.47
2022-09-15T05:36:54.397Z,98556.66
2022-09-15T05:38:57.575Z,98562.13
2022-09-15T05:41:11.073Z,98555.09
2022-09-15T05:43:13.329Z,98561.94
2022-09-15T05:45:15.700Z,98555.63
2022-09-15T05:47:17.788Z,98561.28
2022-09-15T05:49:20.345Z,98557.66
2022-09-15T05:51:23.289Z,98562.59
2022-09-15T05:53:26.478Z,98562.75
2022-09-15T05:55:28.930Z,98561.91
2022-09-15T05:57:31.411Z,98576.16
2022-09-15T05:59:36.156Z,98573.72
2022-09-15T06:01:38.329Z,98572.72
2022-09-15T06:03:40.858Z,98581.94
2022-09-15T06:05:43.409Z,98587.28
2022-09-15T06:07:45.840Z,98595.50
2022-09-15T06:09:48.166Z,98602.03
2022-09-15T06:11:50.427Z,98606.81
2022-09-15T06:13:52.982Z,98608.84
2022-09-15T06:15:55.128Z,98606.63
2022-09-15T06:17:57.372Z,98607.50
2022-09-15T06:19:59.445Z,98618.63
2022-09-15T06:22:07.315Z,98619.81
2022-09-15T06:24:12.214Z,98621.50
2022-09-15T06:26:26.358Z,98615.38
2022-09-15T06:28:28.385Z,98621.00
2022-09-15T06:30:30.586Z,98631.97
2022-09-15T06:32:32.700Z,98644.47
2022-09-15T06:34:34.925Z,98657.88
2022-09-15T06:36:39.050Z,98658.72
2022-09-15T06:38:42.831Z,98656.84
2022-09-15T06:40:47.852Z,98660.84
2022-09-15T06:42:50.861Z,98647.84
2022-09-15T06:44:53.280Z,98653.47
2022-09-15T06:46:55.479Z,98656.94
2022-09-15T06:49:00.827Z,98660.38
2022-09-15T06:51:04.118Z,98663.63
2022-09-15T06:53:06.267Z,98661.94
2022-09-15T06:55:08.628Z,98654.38
2022-09-15T06:57:11.086Z,98659.91
2022-09-15T06:59:13.910Z,98655.28
2022-09-15T07:01:30.624Z,98673.44
2022-09-15T07:03:32.748Z,98677.41
2022-09-15T07:05:35.013Z,98680.50
2022-09-15T07:07:37.110Z,98682.25
2022-09-15T07:09:41.284Z,98685.50
2022-09-15T07:11:43.535Z,98691.00
2022-09-15T07:13:47.258Z,98699.78
2022-09-15T07:16:00.925Z,98698.38
2022-09-15T07:18:03.142Z,98705.41
2022-09-15T07:20:08.430Z,98717.78
2022-09-15T07:22:12.172Z,98715.72
2022-09-15T07:24:14.766Z,98710.78
2022-09-15T07:26:25.407Z,98727.25
2022-09-15T07:28:28.914Z,98729.31
2022-09-15T07:30:30.989Z,98724.88
2022-09-15T07:32:33.527Z,98726.41
2022-09-15T07:34:35.717Z,98727.13
2022-09-15T07:36:38.064Z,98724.03
2022-09-15T07:38:42.579Z,98719.72
2022-09-15T07:40:46.287Z,98721.28
2022-09-15T07:42:48.509Z,98738.25
2022-09-15T07:44:50.731Z,98734.47
2022-09-15T07:46:53.246Z,98731.06
2022-09-15T07:48:58.503Z,98730.53
2022-09-15T07:51:00.749Z,98739.09
2022-09-15T07:53:03.728Z,98743.03
2022-09-15T07:55:06.205Z,98738.41
2022-09-15T07:57:08.289Z,98735.66
2022-09-15T07:59:10.401Z,98739.94
2022-09-15T08:01:15.033Z,98745.41
2022-09-15T08:03:17.214Z,98746.44
2022-09-15T08:05:19.617Z,98750.06
2022-09-15T08:07:21.599Z,98773.91
2022-09-15T08:09:23.960Z,98770.78
2022-09-15T08:11:26.954Z,98770.78
2022-09-15T08:13:29.463Z,98773.34
2022-09-15T08:15:31.584Z,98768.59
2022-09-15T08:17:34.906Z,98769.31
2022-09-15T08:19:37.046Z,98766.66
2022-09-15T08:21:39.185Z,98767.19
2022-09-15T08:23:41.886Z,98759.31
2022-09-15T08:25:44.028Z,98767.53
2022-09-15T08:27:46.417Z,98776.13
2022-09-15T08:29:49.007Z,98758.47
2022-09-15T08:31:51.157Z,98767.56
2022-09-15T08:33:55.507Z,98769.13
2022-09-15T08:36:03.175Z,98769.81
2022-09-15T08:38:05.129Z,98768.97
2022-09-15T08:40:10.118Z,98772.22
2022-09-15T08:42:20.887Z,98772.94
2022-09-15T08:44:41.175Z,98778.63
2022-09-15T08:46:53.529Z,98773.81
2022-09-15T08:49:47.398Z,98772.28
2022-09-15T08:51:51.557Z,98766.25
2022-09-15T08:54:00.679Z,98764.88
2022-09-15T08:56:13.451Z,98764.03
2022-09-15T08:58:21.688Z,98769.84
2022-09-15T09:00:24.112Z,98776.56
2022-09-15T09:02:47.067Z,98773.63
2022-09-15T09:05:19.571Z,98776.53
2022-09-15T09:07:24.522Z,98777.06
2022-09-15T09:09:35.392Z,98771.56
2022-09-15T09:11:39.924Z,98767.63
2022-09-15T09:13:56.740Z,98766.78
2022-09-15T09:16:18.634Z,98760.25
2022-09-15T09:18:47.331Z,98764.53
2022-09-15T09:20:53.678Z,98750.13
2022-09-15T09:22:57.977Z,98752.50
2022-09-15T09:25:11.660Z,98751.16
2022-09-15T09:27:28.962Z,98753.75
2022-09-15T09:29:39.299Z,98755.97
2022-09-15T09:31:43.702Z,98759.63
2022-09-15T09:34:00.817Z,98765.47
2022-09-15T09:36:04.184Z,98764.06
2022-09-15T09:38:08.577Z,98764.97
2022-09-15T09:40:17.302Z,98768.56
2022-09-15T09:42:20.163Z,98758.25
2022-09-15T09:44:32.100Z,98751.22
2022-09-15T09:46:34.753Z,98740.88
2022-09-15T09:48:37.005Z,98729.03
2022-09-15T09:50:45.012Z,98731.44
2022-09-15T09:52:56.319Z,98739.16
2022-09-15T09:55:24.422Z,98751.72
2022-09-15T09:57:40.548Z,98752.41
2022-09-15T09:59:48.133Z,98748.28
2022-09-15T10:02:19.374Z,98746.03
2022-09-15T10:04:23.241Z,98736.06
2022-09-15T10:06:31.121Z,98733.34
2022-09-15T10:08:35.633Z,98727.34
2022-09-15T10:10:37.930Z,98734.38
2022-09-15T10:12:41.728Z,98726.63
2022-09-15T10:14:52.406Z,98722.34
2022-09-15T10:17:15.739Z,98719.44
2022-09-15T10:19:18.678Z,98714.94
2022-09-15T10:21:24.827Z,98708.94
2022-09-15T10:23:30.134Z,98718.22
2022-09-15T10:25:58.087Z,98700.38
2022-09-15T10:28:17.937Z,98697.94
2022-09-15T10:30:20.432Z,98696.91
2022-09-15T10:32:31.570Z,98689.84
2022-09-15T10:34:33.629Z,98689.00
2022-09-15T10:36:36.186Z,98691.22
2022-09-15T10:38:44.757Z,98674.56
2022-09-15T10:41:11.953Z,98685.72
2022-09-15T10:43:28.150Z,98682.09
2022-09-15T10:45:39.927Z,98682.44
2022-09-15T10:48:07.265Z,98684.84
2022-09-15T10:50:25.274Z,98690.31
2022-09-15T10:53:02.034Z,98684.41
2022-09-15T10:55:10.832Z,98680.31
2022-09-15T10:57:59.159Z,98675.16
2022-09-15T11:00:11.456Z,98666.50
2022-09-15T11:02:38.188Z,98665.47
2022-09-15T11:04:55.492Z,98660.63
2022-09-15T11:07:29.346Z,98656.50
2022-09-15T11:09:39.779Z,98659.56
2022-09-15T11:11:53.957Z,98658.34
2022-09-15T11:14:25.373Z,98653.47
2022-09-15T11:16:51.678Z,98644.78
2022-09-15T11:19:15.227Z,98652.34
2022-09-15T11:21:38.431Z,98645.59
2022-09-15T11:23:43.495Z,98644.16
2022-09-15T11:25:51.613Z,98655.84
2022-09-15T11:28:04.788Z,98649.00
2022-09-15T11:30:16.660Z,98648.34
2022-09-15T11:32:26.183Z,98653.09
2022-09-15T11:34:36.669Z,98643.13
2022-09-15T11:36:49.899Z,98657.09
2022-09-15T11:39:06.269Z,98654.00
2022-09-15T11:41:44.105Z,98657.13
2022-09-15T11:44:04.276Z,98654.53
2022-09-15T11:46:16.181Z,98658.16
2022-09-15T11:48:45.439Z,98651.75
2022-09-15T11:50:52.523Z,98650.78
2022-09-15T11:53:18.603Z,98650.59
2022-09-15T11:55:30.485Z,98658.88
2022-09-15T11:57:43.468Z,98655.94
2022-09-15T12:00:07.172Z,98652.69
2022-09-15T12:02:52.157Z,98654.72
2022-09-15T12:05:13.757Z,98645.31
2022-09-15T12:07:23.823Z,98642.72
2022-09-15T12:09:26.851Z,98633.97
2022-09-15T12:11:32.044Z,98640.34
2022-09-15T12:13:34.775Z,98639.28
2022-09-15T12:15:38.002Z,98639.47
2022-09-15T12:17:56.625Z,98632.75
2022-09-15T12:20:17.686Z,98628.09
2022-09-15T12:22:43.377Z,98627.72
2022-09-15T12:25:03.639Z,98631.63
2022-09-15T12:27:06.192Z,98627.31
2022-09-15T12:29:31.830Z,98623.66
2022-09-15T12:31:38.748Z,98621.72
2022-09-15T12:34:01.465Z,98611.00
2022-09-15T12:36:34.611Z,98615.44
2022-09-15T12:38:36.908Z,98604.94
2022-09-15T12:40:40.614Z,98604.34
2022-09-15T12:42:46.512Z,98594.84
2022-09-15T12:45:19.820Z,98601.03
2022-09-15T12:48:12.052Z,98605.31
2022-09-15T12:50:17.011Z,98599.44
2022-09-15T12:52:22.503Z,98593.38
2022-09-15T12:54:31.099Z,98589.38
2022-09-15T12:56:34.729Z,98580.84
2022-09-15T12:58:41.060Z,98602.19
2022-09-15T13:01:13.850Z,98585.63
2022-09-15T13:03:28.470Z,98593.59
2022-09-15T13:05:42.340Z,98581.00
2022-09-15T13:07:56.788Z,98583.75
2022-09-15T13:10:13.336Z,98587.16
2022-09-15T13:12:17.893Z,98591.16
2022-09-15T13:14:33.117Z,98583.22
2022-09-15T13:16:46.805Z,98584.47
2022-09-15T13:18:55.092Z,98585.69
2022-09-15T13:21:06.529Z,98584.00
2022-09-15T13:23:14.375Z,98591.72
2022-09-15T13:25:22.053Z,98592.38
2022-09-15T13:27:29.606Z,98580.84
2022-09-15T13:29:33.287Z,98576.50
2022-09-15T13:32:19.753Z,98568.47
2022-09-15T13:39:46.795Z,98552.06
2022-09-15T13:42:00.784Z,98553.09
2022-09-15T13:44:21.636Z,98536.22
2022-09-15T13:46:35.644Z,98546.69
2022-09-15T13:48:59.464Z,98536.69
2022-09-15T13:51:09.273Z,98536.00
2022-09-15T13:53:24.456Z,98535.66
2022-09-15T13:55:34.247Z,98536.69
2022-09-15T14:00:13.675Z,98526.88
2022-09-15T14:02:21.191Z,98523.47
2022-09-15T14:04:31.624Z,98511.94
2022-09-15T14:06:36.785Z,98511.94
2022-09-15T14:08:41.060Z,98513.63
2022-09-15T14:10:51.870Z,98508.50
2022-09-15T14:12:59.194Z,98508.50
2022-09-15T14:15:07.869Z,98494.72
2022-09-15T14:17:29.561Z,98500.16
2022-09-15T14:19:36.026Z,98499.78
2022-09-15T14:21:49.906Z,98494.53
2022-09-15T14:23:55.270Z,98488.81
2022-09-15T14:26:02.412Z,98488.19
2022-09-15T14:28:05.862Z,98486.28
2022-09-15T14:30:17.769Z,98490.72
2022-09-15T14:32:21.406Z,98473.34
2022-09-15T14:34:26.283Z,98467.81
2022-09-15T14:36:33.639Z,98457.84
2022-09-15T14:38:36.341Z,98447.84
2022-09-15T14:40:40.293Z,98457.84
2022-09-15T14:42:44.723Z,98469.53
2022-09-15T14:47:28.695Z,98480.38
2022-09-15T14:49:30.877Z,98473.94
2022-09-15T14:51:34.469Z,98463.75
2022-09-15T14:53:40.503Z,98475.84
2022-09-15T14:56:07.821Z,98462.44
2022-09-15T14:58:23.807Z,98456.41
2022-09-15T15:00:30.274Z,98446.09
2022-09-15T15:02:53.694Z,98436.13
2022-09-15T15:05:05.741Z,98429.72
2022-09-15T15:07:20.450Z,98429.22
2022-09-15T15:09:49.402Z,98427.53
2022-09-15T15:11:57.227Z,98427.91
2022-09-15T15:14:00.243Z,98431.25
2022-09-15T15:16:10.096Z,98427.59
2022-09-15T15:18:32.112Z,98425.81
2022-09-15T15:20:34.524Z,98423.94
2022-09-15T15:22:38.273Z,98420.97
2022-09-15T15:24:43.988Z,98428.56
2022-09-15T15:26:49.340Z,98419.66
2022-09-15T15:28:51.863Z,98419.00
2022-09-15T15:31:06.863Z,98410.91
2022-09-15T15:33:25.585Z,98434.84
2022-09-15T15:35:29.080Z,98434.69
2022-09-15T15:37:34.116Z,98431.72
2022-09-15T15:39:36.931Z,98436.09
2022-09-15T15:41:42.262Z,98437.31
2022-09-15T15:43:55.895Z,98422.19
2022-09-15T15:46:03.928Z,98420.31
2022-09-15T15:48:06.839Z,98427.53
2022-09-15T15:50:14.048Z,98419.66
2022-09-15T15:52:16.804Z,98426.84
2022-09-15T15:54:19.562Z,98423.66
2022-09-15T15:56:25.747Z,98405.59
2022-09-15T15:58:28.489Z,98398.56
2022-09-15T16:00:39.133Z,98395.91
2022-09-15T16:02:41.338Z,98399.31
2022-09-15T16:04:43.569Z,98399.69
2022-09-15T16:07:04.752Z,98405.97
2022-09-15T16:09:07.121Z,98391.97
2022-09-15T16:11:12.546Z,98397.03
2022-09-15T16:13:20.127Z,98391.03
2022-09-15T16:15:24.563Z,98389.50
2022-09-15T16:17:26.620Z,98393.28
2022-09-15T16:19:32.569Z,98388.16
2022-09-15T16:21:42.578Z,98395.34
2022-09-15T16:23:45.096Z,98401.91
2022-09-15T16:25:56.456Z,98410.56
2022-09-15T16:27:59.069Z,98414.84
2022-09-15T16:30:01.386Z,98420.91
2022-09-15T16:32:06.353Z,98419.38
2022-09-15T16:34:20.847Z,98391.09
2022-09-15T16:36:23.407Z,98387.16
2022-09-15T16:38:26.092Z,98410.97
2022-09-15T16:40:31.719Z,98411.34
2022-09-15T16:42:34.060Z,98407.44
2022-09-15T16:44:36.648Z,98401.16
2022-09-15T16:46:39.035Z,98402.38
2022-09-15T16:48:43.358Z,98395.88
2022-09-15T16:51:23.070Z,98417.22
2022-09-15T16:53:18.010Z,98423.78
2022-09-15T16:55:25.952Z,98429.59
2022-09-15T16:57:33.251Z,98425.47
2022-09-15T16:59:36.294Z,98411.38
2022-09-15T17:01:39.514Z,98406.03
2022-09-15T17:03:43.544Z,98412.22
2022-09-15T17:05:50.261Z,98423.06
2022-09-15T17:07:52.488Z,98418.31
2022-09-15T17:09:54.698Z,98418.38
2022-09-15T17:11:56.891Z,98417.31
2022-09-15T17:13:59.151Z,98413.34
2022-09-15T17:16:02.174Z,98425.56
2022-09-15T17:18:05.860Z,98416.16
2022-09-15T17:20:08.426Z,98413.94
2022-09-15T17:22:13.903Z,98411.75
2022-09-15T17:24:17.799Z,98421.56
2022-09-15T17:26:24.654Z,98407.88
2022-09-15T17:28:31.965Z,98413.44
2022-09-15T17:30:36.046Z,98415.34
2022-09-15T17:32:38.369Z,98407.31
2022-09-15T17:34:41.138Z,98405.09
2022-09-15T17:36:43.295Z,98402.53
2022-09-15T17:38:46.176Z,98397.91
2022-09-15T17:40:50.169Z,98402.25
2022-09-15T17:42:52.373Z,98411.22
2022-09-15T17:44:54.706Z,98400.41
2022-09-15T17:46:57.007Z,98409.88
2022-09-15T17:48:59.372Z,98403.19
2022-09-15T17:51:01.866Z,98400.13
2022-09-15T17:53:12.685Z,98408.69
2022-09-15T17:55:18.990Z,98405.63
2022-09-15T17:57:28.875Z,98403.59
2022-09-15T17:59:31.366Z,98408.03
2022-09-15T18:01:33.564Z,98401.69
2022-09-15T18:03:37.370Z,98410.13
2022-09-15T18:05:39.572Z,98406.31
2022-09-15T18:07:41.956Z,98405.63
2022-09-15T18:09:44.333Z,98398.94
2022-09-15T18:11:49.586Z,98398.94
2022-09-15T18:13:54.281Z,98397.94
2022-09-15T18:15:56.643Z,98382.47
2022-09-15T18:18:04.592Z,98384.19
2022-09-15T18:20:07.190Z,98382.47
2022-09-15T18:22:09.547Z,98373.06
2022-09-15T18:24:14.821Z,98390.38
2022-09-15T18:26:17.112Z,98390.00
2022-09-15T18:28:20.044Z,98393.97
2022-09-15T18:30:25.349Z,98413.19
2022-09-15T18:32:27.544Z,98413.38
2022-09-15T18:34:30.235Z,98421.25
2022-09-15T18:36:32.360Z,98428.13
2022-09-15T18:38:34.504Z,98425.38
2022-09-15T18:40:36.770Z,98406.16
2022-09-15T18:42:39.654Z,98420.38
2022-09-15T18:44:41.847Z,98431.03
2022-09-15T18:46:44.136Z,98420.06
2022-09-15T18:48:46.883Z,98425.53
2022-09-15T18:50:51.927Z,98408.72
2022-09-15T18:52:54.193Z,98414.72
2022-09-15T18:54:56.370Z,98437.03
2022-09-15T18:56:58.450Z,98434.47
2022-09-15T18:59:00.874Z,98437.72
2022-09-15T19:01:03.595Z,98432.06
2022-09-15T19:03:09.646Z,98440.09
2022-09-15T19:05:12.656Z,98444.91
2022-09-15T19:07:14.666Z,98444.06
2022-09-15T19:09:16.642Z,98437.16
2022-09-15T19:11:19.943Z,98445.25
2022-09-15T19:13:22.673Z,98445.25
2022-09-15T19:15:25.038Z,98448.00
2022-09-15T19:17:27.087Z,98448.69
2022-09-15T19:19:30.117Z,98440.44
2022-09-15T19:21:32.412Z,98440.09
2022-09-15T19:23:36.085Z,98448.47
2022-09-15T19:25:40.518Z,98455.72
2022-09-15T19:27:43.258Z,98449.53
2022-09-15T19:29:46.366Z,98437.50
2022-09-15T19:31:48.527Z,98434.06
2022-09-15T19:33:51.014Z,98434.25
2022-09-15T19:36:10.534Z,98432.88
2022-09-15T19:38:15.961Z,98428.44
2022-09-15T19:40:18.445Z,98439.41
2022-09-15T19:42:20.655Z,98435.97
2022-09-15T19:44:22.751Z,98429.66
2022-09-15T19:46:25.761Z,98433.41
2022-09-15T19:48:28.034Z,98432.38
2022-09-15T19:50:29.984Z,98439.59
2022-09-15T19:52:32.511Z,98442.16
2022-09-15T19:54:34.896Z,98441.31
2022-09-15T19:56:37.102Z,98449.72
2022-09-15T19:58:39.155Z,98443.00
2022-09-15T20:00:41.159Z,98437.69
2022-09-15T20:02:47.554Z,98442.53
2022-09-15T20:04:50.648Z,98444.94
2022-09-15T20:06:52.868Z,98440.28
2022-09-15T20:08:58.038Z,98439.75
2022-09-15T20:11:00.072Z,98444.41
2022-09-15T20:13:02.550Z,98436.16
2022-09-15T20:15:05.025Z,98437.22
2022-09-15T20:17:07.313Z,98441.50
2022-09-15T20:19:09.345Z,98434.47
2022-09-15T20:21:26.903Z,98426.41
2022-09-15T20:23:37.131Z,98427.09
2022-09-15T20:25:39.239Z,98423.66
2022-09-15T20:27:42.311Z,98428.13
2022-09-15T20:29:44.373Z,98428.78
2022-09-15T20:31:46.799Z,98430.88
2022-09-15T20:33:50.556Z,98434.28
2022-09-15T20:35:53.696Z,98422.78
2022-09-15T20:37:55.792Z,98422.94
2022-09-15T20:39:58.970Z,98422.97
2022-09-15T20:42:01.050Z,98432.25
2022-09-15T20:44:03.832Z,98432.91
2022-09-15T20:46:08.888Z,98438.22
2022-09-15T20:48:13.191Z,98443.03
2022-09-15T20:50:17.210Z,98444.75
2022-09-15T20:52:19.270Z,98450.91
2022-09-15T20:54:21.482Z,98454.00
2022-09-15T20:56:26.140Z,98454.00
2022-09-15T20:58:28.467Z,98456.75
2022-09-15T21:00:33.938Z,98462.09
2022-09-15T21:02:36.437Z,98456.59
2022-09-15T21:04:38.442Z,98459.31
2022-09-15T21:06:42.918Z,98458.66
2022-09-15T21:08:46.376Z,98451.44
2022-09-15T21:10:49.587Z,98456.09
2022-09-15T21:12:51.573Z,98449.91
2022-09-15T21:14:54.878Z,98450.41
2022-09-15T21:16:56.984Z,98450.94
2022-09-15T21:18:59.288Z,98450.41
2022-09-15T21:21:05.219Z,98457.63
2022-09-15T21:23:07.491Z,98455.38
2022-09-15T21:25:09.526Z,98460.88
2022-09-15T21:27:27.059Z,98471.16
2022-09-15T21:29:29.640Z,98471.00
2022-09-15T21:31:33.548Z,98473.56
2022-09-15T21:33:36.974Z,98471.66
2022-09-15T21:35:41.133Z,98480.59
2022-09-15T21:37:43.628Z,98484.03
2022-09-15T21:39:48.593Z,98475.09
2022-09-15T21:41:50.825Z,98479.88
2022-09-15T21:43:56.030Z,98481.09
2022-09-15T21:45:59.073Z,98481.63
2022-09-15T21:48:01.412Z,98473.56
2022-09-15T21:50:03.778Z,98484.00
2022-09-15T21:52:05.935Z,98480.38
2022-09-15T21:54:09.128Z,98487.75
2022-09-15T21:56:12.217Z,98482.13
2022-09-15T21:58:17.578Z,98481.78
2022-09-15T22:00:19.779Z,98491.34
2022-09-15T22:02:22.441Z,98484.31
2022-09-15T22:04:24.661Z,98485.53
2022-09-15T22:06:32.545Z,98485.50
2022-09-15T22:08:35.118Z,98494.28
2022-09-15T22:10:38.262Z,98494.44
2022-09-15T22:12:40.385Z,98488.94
2022-09-15T22:14:42.632Z,98501.97
2022-09-15T22:16:45.078Z,98499.06
2022-09-15T22:18:47.738Z,98508.66
2022-09-15T22:20:49.799Z,98503.84
2022-09-15T22:22:51.972Z,98501.75
2022-09-15T22:24:54.449Z,98495.91
2022-09-15T22:26:56.632Z,98500.00
2022-09-15T22:29:00.099Z,98503.25
2022-09-15T22:31:06.224Z,98508.22
2022-09-15T22:33:10.814Z,98507.50
2022-09-15T22:35:13.290Z,98510.44
2022-09-15T22:37:15.369Z,98507.38
2022-09-15T22:39:17.699Z,98510.09
2022-09-15T22:41:21.012Z,98513.19
2022-09-15T22:43:23.921Z,98508.69
2022-09-15T22:45:25.902Z,98514.38
2022-09-15T22:47:28.304Z,98514.38
2022-09-15T22:49:30.602Z,98507.50
2022-09-15T22:51:32.839Z,98510.09
2022-09-15T22:53:35.186Z,98517.97
2022-09-15T22:55:37.658Z,98521.44
2022-09-15T22:57:39.790Z,98519.19
2022-09-15T22:59:41.781Z,98523.31
2022-09-15T23:01:44.081Z,98528.47
2022-09-15T23:03:50.716Z,98528.78
2022-09-15T23:05:58.399Z,98529.81
2022-09-15T23:08:00.812Z,98545.06
2022-09-15T23:10:03.294Z,98548.34
2022-09-15T23:12:05.499Z,98546.94
2022-09-15T23:14:13.635Z,98546.75
2022-09-15T23:16:16.322Z,98547.44
2022-09-15T23:18:18.314Z,98544.88
2022-09-15T23:20:20.288Z,98551.56
2022-09-15T23:22:22.610Z,98540.94
2022-09-15T23:24:26.134Z,98556.84
2022-09-15T23:26:28.296Z,98554.97
2022-09-15T23:28:31.139Z,98554.28
2022-09-15T23:30:33.019Z,98551.69
2022-09-15T23:32:35.534Z,98567.13
2022-09-15T23:34:37.721Z,98563.69
2022-09-15T23:36:40.019Z,98569.50
2022-09-15T23:38:44.575Z,98575.84
2022-09-15T23:40:48.459Z,98566.75
2022-09-15T23:42:50.836Z,98577.91
2022-09-15T23:44:55.848Z,98578.22
2022-09-15T23:46:57.982Z,98584.72
2022-09-15T23:49:00.339Z,98586.44
2022-09-15T23:51:02.621Z,98584.88
2022-09-15T23:53:05.465Z,98579.19
2022-09-15T23:55:08.468Z,98590.53
2022-09-15T23:57:11.972Z,98586.06
2022-09-15T23:59:14.184Z,98583.84
